Flight Track Log - Related Links

Times and Time Zones

All times are in EDT time to prevent confusion due to time zone crossing. See the RPA3883 flight status page for this flight to view local times or setup timezone preferences in your user account.


Time Position Orientation Groundspeed Altitude Reporting Facility
EDT Latitude Longitude Course Direction KTS MPH feet Rate Location/Type
Thu 11:26:49 AM 40.6500 -74.1833 303° West 185 213 1,600  Level New York TRACON
Thu 11:28:49 AM 40.7000 -74.2833 303° West 240 276 5,800 2,033 Climbing New York TRACON
Thu 11:29:49 AM 40.7500 -74.3333 323° Northwest 243 280 7,700 1,664 Climbing New York TRACON
Thu 11:31:06 AM 40.8244 -74.4072 323° Northwest 259 298 9,600 1,007 Climbing New York Center
Thu 11:32:06 AM 40.8853 -74.4628 325° Northwest 300 345 10,000 787 Climbing New York Center
Thu 11:33:08 AM 40.9600 -74.5328 325° Northwest 312 359 11,200 1,286 Climbing New York Center
Thu 11:35:08 AM 41.0894 -74.6528 324° Northwest 297 342 13,900 944 Climbing New York Center
Thu 11:36:06 AM 41.1517 -74.7253 319° Northwest 297 342 14,000 966 Climbing New York Center
Thu 11:37:06 AM 41.1900 -74.8183 299° West 291 335 15,800 1,475 Climbing New York Center
Thu 11:38:08 AM 41.2267 -74.9033 300° West 280 322 17,000 1,088 Climbing New York Center
Thu 11:40:00 AM 41.3004 -75.0671 323° Northwest  Level FlightAware Approximate
Thu 11:40:08 AM 41.3017 -75.0792 323° Northwest 274 315 19,100  Level New York Center
Thu 11:43:07 AM 41.4225 -75.3553 301° West 287 330 20,000 225 Climbing New York Center
Thu 11:44:08 AM 41.4706 -75.4556 303° West 306 352 20,000  Level New York Center
Thu 11:46:08 AM 41.5725 -75.6678 303° West 336 387 20,000  Level New York Center
Thu 11:47:09 AM 41.6244 -75.7714 304° West 336 387 20,000  Level New York Center
Thu 11:48:07 AM 41.6739 -75.8781 302° West 342 394 20,000  Level New York Center
Thu 11:49:06 AM 41.7256 -75.9875 302° West 342 394 20,000  Level New York Center
Thu 11:50:07 AM 41.7769 -76.0944 303° West 342 394 20,000  Level New York Center
Thu 11:52:19 AM 41.8803 -76.3150 302° West 343 395 20,000  Level Cleveland Center
Thu 11:53:05 AM 41.9286 -76.4189 302° West 347 399 20,000  Level New York Center
Thu 11:54:06 AM 41.9775 -76.5264 301° West 347 399 20,000  Level New York Center
Thu 11:55:07 AM 42.0283 -76.6367 302° West 347 399 20,000  Level New York Center
Thu 11:56:08 AM 42.0772 -76.7444 301° West 347 399 20,000  Level New York Center
Thu 11:58:30 AM 42.1900 -76.9864 302° West 340 391 20,000  Level Cleveland Center
Thu 11:59:32 AM 42.2494 -77.1167 302° West 340 391 20,000  Level Cleveland Center
Thu 12:00:34 PM 42.2983 -77.2231 302° West 337 388 20,000 435 Level Cleveland Center
Thu 12:01:36 PM 42.3458 -77.3278 302° West 331 381 20,900 968 Climbing Cleveland Center
Thu 12:02:38 PM 42.3878 -77.4211 301° West 295 339 22,000 266 Climbing Cleveland Center
Thu 12:05:44 PM 42.5233 -77.7272 301° West 324 373 22,000  Level Cleveland Center
Thu 12:06:46 PM 42.5725 -77.8372 310° West 333 383 22,000 -97 Level Cleveland Center
Thu 12:07:00 PM 42.5894 -77.8329 310° West  Level Estimated
Thu 12:07:48 PM 42.6325 -77.9692 302° West 335 386 21,800  Level Cleveland Center
Thu 12:10:29 PM 42.7333 -78.2333 298° West 310 357 18,700 -1,357 Descending Toronto Center
Thu 12:11:00 PM 42.7322 -78.2071 301° West  Level FlightAware Approximate
Thu 12:11:29 PM 42.7833 -78.3167 309° West 290 334 16,800  Level Toronto Center
Thu 12:12:29 PM 42.8167 -78.4000 299° West 290 334 15,000 -1,533 Descending Toronto Center
Thu 12:12:59 PM 42.8494 -78.4636 305° West 296 341 14,500 -390 Descending Cleveland Center
Thu 12:15:03 PM 42.9514 -78.6897 302° West 311 358 14,000 -289 Descending Cleveland Center
Thu 12:17:29 PM 43.0833 -78.9000 311° West 320 368 13,200 -767 Descending Toronto Center
Thu 12:19:29 PM 43.1833 -79.1000 304° West 320 368 10,600 -1,400 Descending Toronto Center
Thu 12:20:29 PM 43.2167 -79.2000 295° West 280 322 9,000 -633 Descending Toronto Center
Thu 12:22:29 PM 43.3000 -79.3333 311° West 260 299 8,700 -333 Descending Toronto Center
Thu 12:23:29 PM 43.3833 -79.3833 336° Northwest 270 311 8,000 -400 Descending Toronto Center
Thu 12:24:29 PM 43.4500 -79.4333 331° Northwest 270 311 7,900  Descending Toronto Center
Thu 12:25:29 PM 43.5000 -79.4667 334° Northwest 230 265 8,000 -233 Climbing Toronto Center
Thu 12:27:29 PM 43.6167 -79.4667 360° North 250 288 7,200 -633 Descending Toronto Center
Thu 12:28:29 PM 43.6667 -79.4000 44° Northeast 250 288 6,100 -800 Descending Toronto Center
Thu 12:30:29 PM 43.7667 -79.3167 31° Northeast 220 253 4,800 -725 Descending Toronto Center
Thu 12:32:29 PM 43.7667 -79.4333 270° West 180 207 3,200 -800 Descending Toronto Center
Thu 12:33:29 PM 43.7333 -79.4667 216° Southwest 170 196 2,400 -850 Descending Toronto Center
Thu 12:34:29 PM 43.7000 -79.5333 235° Southwest 180 207 1,500 -900 Descending Toronto Center

Login

Don't have an account? Register now (free) for customized features, flight alerts, and more!